メインページ
METAR-TAF:

METAR-TAF

空港 :

ロングイェールビーン, ノルウェー

緯度: 78-15N, 経度: 015-28E, 海抜: 2m

現時点の気象観測

当レポートは1時間7分前の04:50(UTC)に作成
西の風 11kt
気温 4°C
湿度 60%
気圧 1011 hPa
視程10km以上
高度3500ftの雲はほとんどない
高度20000ftの千切れ雲あり

METAR: ENSB 200450Z 28011KT 9999 FEW035 BKN200 04/M03 Q1011 RMK WIND 1400FT 23011KT

時間: 07:57 (05:57 UTC)

予報

予報は20日の 06時(UTC)から 21日の 06時(UTC)まで有効
西/南西の風 12kt
視程10km以上
高度2000ftの雲はほとんどない
高度10000ftの千切れ雲あり

TAF: ENSB 2006/2106 25012KT 9999 FEW020 BKN100

4,000以上の空港の気象観測と天気予報(METAR報とTAF報)

利用可能な観測所は地図上に黄色い丸と赤い丸で示す。

丸の上にカーソルを重ねると観測所名を参照できる。

次にクリックすると気象観測と天気予報を参照できる。

マップの切り替え:黒色「×」印の緑ボタンをクリックして拡大、「-」印の緑ボタンをクリックして縮小、緑色の三角印をクリックして隣りの地図に切り替え


METAR-TAF: